createdAt,value
2019-04-07T00:01:35.467Z,99.90
2019-04-07T00:04:03.145Z,99.90
2019-04-07T00:06:30.747Z,99.90
2019-04-07T00:08:58.401Z,99.90
2019-04-07T00:11:26.569Z,99.90
2019-04-07T00:13:54.417Z,99.90
2019-04-07T00:16:22.033Z,99.90
2019-04-07T00:18:49.722Z,99.90
2019-04-07T00:21:18.003Z,99.90
2019-04-07T00:23:45.801Z,99.90
2019-04-07T00:28:41.023Z,99.90
2019-04-07T00:31:10.457Z,99.90
2019-04-07T00:33:38.106Z,99.90
2019-04-07T00:36:05.768Z,99.90
2019-04-07T00:41:01.399Z,99.90
2019-04-07T00:43:29.242Z,99.90
2019-04-07T00:48:24.661Z,99.90
2019-04-07T00:50:52.337Z,99.90
2019-04-07T00:53:20.070Z,99.90
2019-04-07T00:55:47.738Z,99.90
2019-04-07T00:58:28.148Z,99.90
2019-04-07T01:00:56.359Z,99.90
2019-04-07T01:03:24.063Z,99.90
2019-04-07T01:06:05.059Z,99.90
2019-04-07T01:08:32.759Z,99.90
2019-04-07T01:11:00.452Z,99.90
2019-04-07T01:13:32.951Z,99.90
2019-04-07T01:16:01.327Z,99.90
2019-04-07T01:20:59.616Z,99.90
2019-04-07T01:28:23.631Z,99.90
2019-04-07T01:30:51.693Z,99.90
2019-04-07T01:33:19.422Z,99.90
2019-04-07T01:35:49.370Z,99.90
2019-04-07T01:38:16.770Z,99.90
2019-04-07T01:40:50.789Z,99.90
2019-04-07T01:43:25.913Z,99.90
2019-04-07T01:46:11.965Z,99.90
2019-04-07T01:48:57.678Z,99.90
2019-04-07T01:51:50.586Z,99.90
2019-04-07T01:57:33.795Z,99.90
2019-04-07T02:00:13.726Z,99.90
2019-04-07T02:03:19.582Z,99.90
2019-04-07T02:08:55.546Z,99.90
2019-04-07T02:11:46.270Z,99.90
2019-04-07T02:14:30.136Z,99.90
2019-04-07T02:17:12.036Z,99.90
2019-04-07T02:19:47.274Z,99.90
2019-04-07T02:22:34.443Z,99.90
2019-04-07T02:25:09.760Z,99.90
2019-04-07T02:28:06.448Z,99.90
2019-04-07T02:30:48.097Z,99.90
2019-04-07T02:33:23.010Z,99.90
2019-04-07T02:36:18.181Z,99.90
2019-04-07T02:39:01.439Z,99.90
2019-04-07T02:41:46.604Z,99.90
2019-04-07T02:44:22.459Z,99.90
2019-04-07T02:47:08.429Z,99.90
2019-04-07T04:28:53.236Z,99.90
2019-04-07T04:31:21.655Z,99.90
2019-04-07T04:33:49.470Z,99.90
2019-04-07T04:36:17.766Z,99.90
2019-04-07T04:38:45.943Z,99.90
2019-04-07T04:43:45.136Z,99.90
2019-04-07T04:48:41.347Z,99.90
2019-04-07T04:51:09.769Z,99.90
2019-04-07T04:53:38.156Z,99.90
2019-04-07T04:56:05.984Z,99.90
2019-04-07T04:58:33.606Z,99.90
2019-04-07T05:01:02.907Z,99.90
2019-04-07T05:03:31.525Z,99.90
2019-04-07T05:05:59.272Z,99.90
2019-04-07T05:08:27.084Z,99.90
2019-04-07T05:10:54.854Z,99.90
2019-04-07T05:13:22.503Z,99.90
2019-04-07T05:15:50.240Z,99.90
2019-04-07T05:18:17.980Z,99.90
2019-04-07T05:20:45.666Z,99.90
2019-04-07T05:23:13.303Z,99.90
2019-04-07T05:25:42.815Z,99.90
2019-04-07T05:28:11.240Z,99.90
2019-04-07T05:30:42.537Z,99.90
2019-04-07T05:33:10.200Z,99.90
2019-04-07T05:35:37.958Z,99.90
2019-04-07T05:38:06.833Z,99.90
2019-04-07T05:40:35.644Z,99.90
2019-04-07T05:43:04.656Z,99.90
2019-04-07T05:45:33.787Z,99.90
2019-04-07T05:48:01.923Z,99.90
2019-04-07T05:50:29.685Z,99.90
2019-04-07T05:52:57.562Z,99.90
2019-04-07T05:55:25.334Z,99.90
2019-04-07T05:57:53.200Z,99.90
2019-04-07T06:00:21.787Z,99.90
2019-04-07T06:02:49.577Z,99.90
2019-04-07T06:05:18.386Z,99.90
2019-04-07T06:07:46.959Z,99.90
2019-04-07T06:10:15.398Z,99.90
2019-04-07T06:12:46.341Z,99.90
2019-04-07T06:15:12.895Z,99.90
2019-04-07T06:17:41.084Z,99.90
2019-04-07T06:20:11.933Z,99.90
2019-04-07T06:22:38.801Z,99.90
2019-04-07T06:27:35.648Z,99.90
2019-04-07T06:30:05.621Z,99.90
2019-04-07T06:32:36.096Z,99.90
2019-04-07T06:35:02.794Z,99.90
2019-04-07T06:37:30.846Z,99.90
2019-04-07T06:39:59.243Z,99.90
2019-04-07T06:42:29.670Z,99.90
2019-04-07T06:44:59.467Z,99.90
2019-04-07T06:47:31.308Z,99.90
2019-04-07T06:50:31.182Z,99.90
2019-04-07T06:53:15.791Z,99.90
2019-04-07T06:56:11.112Z,99.90
2019-04-07T06:59:04.555Z,99.90
2019-04-07T07:02:07.332Z,99.90
2019-04-07T07:04:53.922Z,99.90
2019-04-07T07:07:39.783Z,99.90
2019-04-07T07:10:32.547Z,99.90
2019-04-07T07:13:32.406Z,99.90
2019-04-07T07:16:07.905Z,99.90
2019-04-07T07:19:01.070Z,99.90
2019-04-07T07:21:42.525Z,99.90
2019-04-07T07:24:10.436Z,99.90
2019-04-07T07:26:38.649Z,99.90
2019-04-07T07:29:06.831Z,99.90
2019-04-07T07:31:39.258Z,99.90
2019-04-07T07:36:36.217Z,99.90
2019-04-07T07:39:10.343Z,99.90
2019-04-07T07:41:36.452Z,99.90
2019-04-07T07:44:07.500Z,99.90
2019-04-07T07:46:34.365Z,99.90
2019-04-07T07:49:02.229Z,99.90
2019-04-07T07:51:30.335Z,99.90
2019-04-07T07:54:00.747Z,99.90
2019-04-07T07:56:27.540Z,99.90
2019-04-07T07:58:55.206Z,99.90
2019-04-07T08:01:23.497Z,99.90
2019-04-07T08:03:53.003Z,99.90
2019-04-07T08:06:21.383Z,99.90
2019-04-07T08:08:49.327Z,99.90
2019-04-07T08:11:17.684Z,99.90
2019-04-07T08:13:46.148Z,99.90
2019-04-07T08:16:15.200Z,99.90
2019-04-07T08:18:45.280Z,99.90
2019-04-07T08:21:14.539Z,99.90
2019-04-07T08:23:44.588Z,99.90
2019-04-07T08:26:11.744Z,99.90
2019-04-07T08:28:40.262Z,99.90
2019-04-07T08:31:08.077Z,99.90
2019-04-07T08:33:35.666Z,99.90
2019-04-07T08:36:12.655Z,99.90
2019-04-07T08:38:39.900Z,99.90
2019-04-07T08:41:10.142Z,99.90
2019-04-07T08:43:37.394Z,99.90
2019-04-07T08:46:06.007Z,99.90
2019-04-07T08:48:34.054Z,99.90
2019-04-07T08:51:01.826Z,99.90
2019-04-07T08:53:29.497Z,99.90
2019-04-07T08:55:57.206Z,99.90
2019-04-07T08:58:27.868Z,99.90
2019-04-07T09:00:54.633Z,99.90
2019-04-07T09:03:23.163Z,99.90
2019-04-07T09:05:51.430Z,99.90
2019-04-07T09:08:19.220Z,99.90
2019-04-07T09:10:55.061Z,99.90
2019-04-07T09:13:22.708Z,99.90
2019-04-07T09:16:07.010Z,99.90
2019-04-07T09:19:01.136Z,99.90
2019-04-07T09:21:52.807Z,99.90
2019-04-07T09:24:32.726Z,99.90
2019-04-07T09:27:19.496Z,98.10
2019-04-07T09:30:10.176Z,99.80
2019-04-07T09:32:54.616Z,98.10
2019-04-07T09:35:59.256Z,96.20
2019-04-07T09:38:28.440Z,96.30
2019-04-07T09:41:08.493Z,93.80
2019-04-07T09:44:01.094Z,94.60
2019-04-07T09:46:51.331Z,92.40
2019-04-07T09:49:37.895Z,92.40
2019-04-07T09:52:45.687Z,90.80
2019-04-07T09:55:36.735Z,91.10
2019-04-07T09:58:16.140Z,90.20
2019-04-07T10:01:00.197Z,90.10
2019-04-07T10:03:54.026Z,88.50
2019-04-07T10:06:40.032Z,87.30
2019-04-07T10:09:20.321Z,83.30
2019-04-07T10:11:58.099Z,84.30
2019-04-07T10:14:33.823Z,84.20
2019-04-07T10:17:24.300Z,77.90
2019-04-07T10:20:12.333Z,76.20
2019-04-07T10:23:03.007Z,74.40
2019-04-07T10:25:40.323Z,77.20
2019-04-07T10:28:40.079Z,74.60
2019-04-07T10:31:20.488Z,72.10
2019-04-07T10:33:57.377Z,69.20
2019-04-07T10:36:48.782Z,70.00
2019-04-07T10:39:48.366Z,70.60
2019-04-07T10:42:44.895Z,69.10
2019-04-07T10:45:28.467Z,66.10
2019-04-07T10:48:19.062Z,67.00
2019-04-07T10:51:21.746Z,66.70
2019-04-07T10:54:14.017Z,64.80
2019-04-07T10:56:49.945Z,62.50
2019-04-07T10:59:42.959Z,61.20
2019-04-07T11:02:27.505Z,60.00
2019-04-07T11:05:06.870Z,59.00
2019-04-07T11:08:00.432Z,59.90
2019-04-07T11:10:43.022Z,57.40
2019-04-07T11:13:42.509Z,57.40
2019-04-07T11:16:38.703Z,56.90
2019-04-07T11:19:36.151Z,56.00
2019-04-07T11:22:29.636Z,56.50
2019-04-07T11:25:10.821Z,55.20
2019-04-07T11:28:01.416Z,56.70
2019-04-07T11:30:37.523Z,55.90
2019-04-07T11:33:19.386Z,57.00
2019-04-07T11:35:58.428Z,57.30
2019-04-07T11:38:45.737Z,55.00
2019-04-07T11:41:31.759Z,55.70
2019-04-07T11:44:11.779Z,55.80
2019-04-07T11:47:02.210Z,55.90
2019-04-07T11:49:52.861Z,54.30
2019-04-07T11:52:33.307Z,54.00
2019-04-07T11:55:28.249Z,54.00
2019-04-07T11:58:24.058Z,53.90
2019-04-07T12:01:06.900Z,54.10
2019-04-07T12:04:03.340Z,53.40
2019-04-07T12:06:50.440Z,54.10
2019-04-07T12:09:39.518Z,53.20
2019-04-07T12:12:30.091Z,53.50
2019-04-07T12:15:19.532Z,52.80
2019-04-07T12:18:17.447Z,52.10
2019-04-07T12:20:47.173Z,51.10
2019-04-07T12:23:38.214Z,51.30
2019-04-07T12:26:28.236Z,51.60
2019-04-07T12:29:05.800Z,50.50
2019-04-07T12:31:47.378Z,51.70
2019-04-07T12:34:38.551Z,52.20
2019-04-07T12:37:42.341Z,54.00
2019-04-07T12:43:07.345Z,99.40
2019-04-07T12:45:46.760Z,95.50
2019-04-07T12:48:49.977Z,57.20
2019-04-07T12:51:37.487Z,55.90
2019-04-07T12:54:23.423Z,53.30
2019-04-07T12:57:06.598Z,51.30
2019-04-07T12:59:57.057Z,51.40
2019-04-07T13:02:53.213Z,49.10
2019-04-07T13:05:34.519Z,51.40
2019-04-07T13:08:24.888Z,51.00
2019-04-07T13:11:00.289Z,49.10
2019-04-07T13:13:37.451Z,49.60
2019-04-07T13:16:27.817Z,49.90
2019-04-07T13:19:04.111Z,48.10
2019-04-07T13:21:48.510Z,50.00
2019-04-07T13:24:31.193Z,51.60
2019-04-07T13:27:04.006Z,51.30
2019-04-07T13:29:35.921Z,50.90
2019-04-07T13:32:39.556Z,48.90
2019-04-07T13:35:22.445Z,50.10
2019-04-07T13:38:07.717Z,51.70
2019-04-07T13:40:54.160Z,52.80
2019-04-07T13:43:36.317Z,52.00
2019-04-07T13:46:40.083Z,51.30
2019-04-07T13:49:36.062Z,51.30
2019-04-07T13:52:21.829Z,50.10
2019-04-07T13:55:08.897Z,50.00
2019-04-07T13:58:00.702Z,50.50
2019-04-07T14:00:48.243Z,50.40
2019-04-07T14:03:41.939Z,51.50
2019-04-07T14:06:17.451Z,50.80
2019-04-07T14:08:53.148Z,52.00
2019-04-07T14:12:04.245Z,53.90
2019-04-07T14:15:00.183Z,54.80
2019-04-07T14:17:42.995Z,56.20
2019-04-07T14:20:37.578Z,57.40
2019-04-07T14:23:25.227Z,58.30
2019-04-07T14:26:01.297Z,56.60
2019-04-07T14:29:01.101Z,58.00
2019-04-07T14:31:49.168Z,58.20
2019-04-07T14:34:26.136Z,57.30
2019-04-07T14:37:28.250Z,56.70
2019-04-07T14:40:18.451Z,55.50
2019-04-07T14:43:09.220Z,57.40
2019-04-07T14:45:59.271Z,56.90
2019-04-07T14:48:43.785Z,55.80
2019-04-07T14:51:20.283Z,54.40
2019-04-07T14:54:07.418Z,52.70
2019-04-07T14:56:55.293Z,52.20
2019-04-07T14:59:43.840Z,52.50
2019-04-07T15:02:12.802Z,51.20
2019-04-07T15:04:45.474Z,49.50
2019-04-07T15:07:31.200Z,48.90
2019-04-07T15:10:09.659Z,49.30
2019-04-07T15:12:41.406Z,47.90
2019-04-07T15:15:11.748Z,48.30
2019-04-07T15:17:39.363Z,49.40
2019-04-07T15:20:07.633Z,50.00
2019-04-07T15:22:35.275Z,49.60
2019-04-07T15:25:03.479Z,49.40
2019-04-07T15:27:31.589Z,48.90
2019-04-07T15:30:00.549Z,47.80
2019-04-07T15:32:30.005Z,47.50
2019-04-07T15:34:57.841Z,46.50
2019-04-07T15:37:25.514Z,46.00
2019-04-07T15:39:53.142Z,45.50
2019-04-07T15:42:33.939Z,45.10
2019-04-07T15:44:52.028Z,45.50
2019-04-07T15:47:21.131Z,46.30
2019-04-07T15:49:49.573Z,45.80
2019-04-07T15:52:17.505Z,46.00
2019-04-07T15:54:45.212Z,47.30
2019-04-07T15:57:13.153Z,46.40
2019-04-07T15:59:42.376Z,46.60
2019-04-07T16:02:11.299Z,47.30
2019-04-07T16:04:40.695Z,47.20
2019-04-07T16:09:48.748Z,48.20
2019-04-07T16:12:12.022Z,50.20
2019-04-07T16:14:43.963Z,51.70
2019-04-07T16:17:10.568Z,52.30
2019-04-07T16:19:43.088Z,55.20
2019-04-07T16:22:12.059Z,54.50
2019-04-07T16:24:37.582Z,56.00
2019-04-07T16:27:06.824Z,55.60
2019-04-07T16:29:35.107Z,56.20
2019-04-07T16:32:03.004Z,57.00
2019-04-07T16:34:30.757Z,58.00
2019-04-07T16:37:00.330Z,58.20
2019-04-07T16:39:29.171Z,58.30
2019-04-07T16:41:57.893Z,59.60
2019-04-07T16:44:26.581Z,59.30
2019-04-07T16:46:58.010Z,59.60
2019-04-07T16:49:24.764Z,60.20
2019-04-07T16:51:52.835Z,60.40
2019-04-07T16:54:20.693Z,61.70
2019-04-07T16:56:50.785Z,62.20
2019-04-07T16:59:19.305Z,61.20
2019-04-07T17:01:47.126Z,62.10
2019-04-07T17:04:14.790Z,63.20
2019-04-07T17:06:42.379Z,63.00
2019-04-07T17:09:17.628Z,63.80
2019-04-07T17:11:46.110Z,64.00
2019-04-07T17:14:14.183Z,63.00
2019-04-07T17:16:44.149Z,62.80
2019-04-07T17:19:11.565Z,63.20
2019-04-07T17:21:41.055Z,64.40
2019-04-07T17:24:24.995Z,63.90
2019-04-07T17:26:50.675Z,66.00
2019-04-07T17:29:20.911Z,65.20
2019-04-07T17:31:48.736Z,65.30
2019-04-07T17:34:17.372Z,65.50
2019-04-07T17:36:48.469Z,65.70
2019-04-07T17:39:39.890Z,65.70
2019-04-07T17:42:20.160Z,66.80
2019-04-07T17:45:07.615Z,69.00
2019-04-07T17:47:55.016Z,67.60
2019-04-07T17:50:41.083Z,67.30
2019-04-07T17:53:23.177Z,67.40
2019-04-07T17:56:10.799Z,68.10
2019-04-07T17:58:58.689Z,68.00
2019-04-07T18:01:44.799Z,68.40
2019-04-07T18:04:33.999Z,69.20
2019-04-07T18:07:30.079Z,69.30
2019-04-07T18:10:14.413Z,70.10
2019-04-07T18:13:01.108Z,70.20
2019-04-07T18:15:57.238Z,71.40
2019-04-07T18:18:54.166Z,71.10
2019-04-07T18:21:47.891Z,71.30
2019-04-07T18:24:37.692Z,72.00
2019-04-07T18:27:27.727Z,72.50
2019-04-07T18:30:08.625Z,72.90
2019-04-07T18:32:49.843Z,74.30
2019-04-07T18:35:35.430Z,75.00
2019-04-07T18:38:34.710Z,75.90
2019-04-07T18:41:20.753Z,76.30
2019-04-07T18:44:10.891Z,78.00
2019-04-07T18:46:57.198Z,77.80
2019-04-07T18:49:46.461Z,78.50
2019-04-07T18:52:39.861Z,78.40
2019-04-07T18:55:27.314Z,79.70
2019-04-07T18:58:15.341Z,78.60
2019-04-07T19:01:21.154Z,79.70
2019-04-07T19:04:24.194Z,79.90
2019-04-07T19:07:02.608Z,82.20
2019-04-07T19:09:36.577Z,81.50
2019-04-07T19:12:29.988Z,82.40
2019-04-07T19:15:26.261Z,82.90
2019-04-07T19:18:04.609Z,84.40
2019-04-07T19:20:52.530Z,84.80
2019-04-07T19:23:39.835Z,85.10
2019-04-07T19:26:22.383Z,86.40
2019-04-07T19:29:12.554Z,88.20
2019-04-07T19:31:55.427Z,88.50
2019-04-07T19:34:55.199Z,92.10
2019-04-07T19:57:09.191Z,92.70
2019-04-07T20:00:02.715Z,94.20
2019-04-07T20:02:41.167Z,94.70
2019-04-07T20:05:26.184Z,96.10
2019-04-07T20:08:19.026Z,97.20
2019-04-07T20:11:05.621Z,97.90
2019-04-07T20:13:46.846Z,99.00
2019-04-07T20:16:49.273Z,99.70
2019-04-07T20:19:39.488Z,99.90
2019-04-07T23:52:13.131Z,99.90
2019-04-07T23:59:35.936Z,99.90
